createdAt,value
2018-09-08T00:02:21.486Z,100160.04
2018-09-08T00:04:50.839Z,100163.38
2018-09-08T00:07:41.973Z,100163.01
2018-09-08T00:10:11.789Z,100156.97
2018-09-08T00:12:42.051Z,100169.63
2018-09-08T00:15:18.864Z,100170.83
2018-09-08T00:17:54.305Z,100169.98
2018-09-08T00:20:28.643Z,100161.27
2018-09-08T00:23:03.044Z,100167.73
2018-09-08T00:25:40.154Z,100170.53
2018-09-08T00:32:34.246Z,100164.52
2018-09-08T00:35:04.656Z,100165.01
2018-09-08T00:37:34.873Z,100170.21
2018-09-08T00:40:05.163Z,100166.37
2018-09-08T00:42:35.492Z,100161.78
2018-09-08T00:45:06.299Z,100163.36
2018-09-08T00:47:36.495Z,100172.30
2018-09-08T00:50:05.997Z,100173.74
2018-09-08T00:52:36.279Z,100168.03
2018-09-08T00:55:05.566Z,100174.64
2018-09-08T00:57:34.865Z,100176.66
2018-09-08T01:00:05.761Z,100181.80
2018-09-08T01:02:35.163Z,100181.31
2018-09-08T01:05:06.819Z,100182.80
2018-09-08T01:07:38.848Z,100183.75
2018-09-08T01:10:10.399Z,100183.83
2018-09-08T01:12:39.678Z,100182.48
2018-09-08T01:15:11.665Z,100179.49
2018-09-08T01:17:42.639Z,100188.27
2018-09-08T01:20:12.148Z,100189.47
2018-09-08T01:22:43.188Z,100193.87
2018-09-08T01:25:15.267Z,100186.15
2018-09-08T01:27:45.691Z,100197.31
2018-09-08T01:30:15.605Z,100202.46
2018-09-08T01:32:44.960Z,100170.47
2018-09-08T01:35:14.741Z,100203.98
2018-09-08T01:37:44.052Z,100203.37
2018-09-08T01:40:16.120Z,100202.66
2018-09-08T01:42:45.432Z,100208.48
2018-09-08T01:45:16.123Z,100206.98
2018-09-08T01:47:46.378Z,100204.23
2018-09-08T01:50:15.781Z,100204.55
2018-09-08T01:52:45.102Z,100209.27
2018-09-08T01:55:14.484Z,100210.58
2018-09-08T01:57:45.504Z,100205.77
2018-09-08T02:00:16.224Z,100215.95
2018-09-08T02:02:47.427Z,100211.00
2018-09-08T02:05:19.421Z,100214.38
2018-09-08T02:07:48.775Z,100215.93
2018-09-08T02:10:19.877Z,100216.20
2018-09-08T02:12:49.623Z,100220.86
2018-09-08T02:15:21.550Z,100209.44
2018-09-08T02:17:51.832Z,100207.83
2018-09-08T02:20:21.827Z,100208.45
2018-09-08T02:22:51.169Z,100203.67
2018-09-08T02:25:22.381Z,100188.90
2018-09-08T02:27:53.801Z,100212.70
2018-09-08T02:30:26.309Z,100217.75
2018-09-08T02:32:56.700Z,100212.89
2018-09-08T02:35:27.440Z,100211.16
2018-09-08T02:37:56.921Z,100204.92
2018-09-08T02:40:27.646Z,100213.41
2018-09-08T02:42:58.004Z,100213.74
2018-09-08T02:45:28.281Z,100214.38
2018-09-08T02:48:00.943Z,100183.94
2018-09-08T02:50:31.460Z,100216.88
2018-09-08T02:53:02.484Z,100210.18
2018-09-08T02:55:31.706Z,100214.91
2018-09-08T02:58:01.750Z,100209.12
2018-09-08T03:00:30.961Z,100210.55
2018-09-08T03:03:00.759Z,100194.89
2018-09-08T03:05:28.995Z,100212.48
2018-09-08T03:07:57.809Z,100211.97
2018-09-08T03:10:25.746Z,100211.31
2018-09-08T03:12:54.282Z,100218.47
2018-09-08T03:15:25.657Z,100221.53
2018-09-08T03:17:54.524Z,100222.78
2018-09-08T03:20:23.331Z,100217.55
2018-09-08T03:22:53.077Z,100217.88
2018-09-08T03:25:21.159Z,100214.73
2018-09-08T03:27:49.107Z,100214.58
2018-09-08T03:30:18.022Z,100224.73
2018-09-08T03:32:46.811Z,100228.51
2018-09-08T03:35:15.661Z,100229.98
2018-09-08T03:37:44.463Z,100223.72
2018-09-08T03:40:12.371Z,100226.94
2018-09-08T03:42:41.200Z,100227.31
2018-09-08T03:45:09.164Z,100218.81
2018-09-08T03:47:38.005Z,100226.94
2018-09-08T03:50:05.963Z,100227.52
2018-09-08T03:52:34.853Z,100225.98
2018-09-08T03:55:03.619Z,100228.50
2018-09-08T03:57:32.452Z,100233.00
2018-09-08T04:00:01.304Z,100232.20
2018-09-08T04:02:30.243Z,100235.38
2018-09-08T04:05:01.182Z,100237.56
2018-09-08T04:07:31.392Z,100233.37
2018-09-08T04:10:04.553Z,100247.33
2018-09-08T04:12:34.780Z,100243.13
2018-09-08T04:15:04.142Z,100238.13
2018-09-08T04:17:33.572Z,100242.47
2018-09-08T04:20:03.824Z,100245.89
2018-09-08T04:22:35.904Z,100245.48
2018-09-08T04:25:07.608Z,100257.19
2018-09-08T04:27:37.936Z,100257.33
2018-09-08T04:30:08.215Z,100263.91
2018-09-08T04:32:38.427Z,100266.21
2018-09-08T04:35:08.664Z,100266.92
2018-09-08T04:37:39.857Z,100264.31
2018-09-08T04:40:10.084Z,100254.41
2018-09-08T04:42:40.256Z,100266.33
2018-09-08T04:45:09.977Z,100269.88
2018-09-08T04:47:41.184Z,100280.61
2018-09-08T04:50:11.526Z,100280.27
2018-09-08T04:52:42.780Z,100275.46
2018-09-08T04:55:13.211Z,100276.75
2018-09-08T04:57:43.528Z,100283.29
2018-09-08T05:00:15.352Z,100285.05
2018-09-08T05:02:46.608Z,100280.65
2018-09-08T05:05:16.951Z,100289.23
2018-09-08T05:07:47.521Z,100293.29
2018-09-08T05:10:17.800Z,100290.72
2018-09-08T05:12:48.099Z,100291.86
2018-09-08T05:15:19.291Z,100288.77
2018-09-08T05:17:49.594Z,100293.47
2018-09-08T05:20:19.814Z,100290.56
2018-09-08T05:22:50.128Z,100295.52
2018-09-08T05:25:20.319Z,100290.28
2018-09-08T05:27:50.611Z,100298.48
2018-09-08T05:30:23.420Z,100297.17
2018-09-08T05:32:53.679Z,100291.47
2018-09-08T05:35:25.007Z,100302.34
2018-09-08T05:37:55.427Z,100303.52
2018-09-08T05:40:26.821Z,100308.73
2018-09-08T05:42:57.146Z,100310.03
2018-09-08T05:45:28.548Z,100306.47
2018-09-08T05:47:58.921Z,100309.47
2018-09-08T05:50:29.094Z,100309.33
2018-09-08T05:53:00.752Z,100326.22
2018-09-08T05:55:31.412Z,100314.57
2018-09-08T05:58:01.728Z,100223.50
2018-09-08T06:00:32.958Z,100309.85
2018-09-08T06:03:03.237Z,100324.05
2018-09-08T06:05:36.091Z,100328.61
2018-09-08T06:08:07.253Z,100328.22
2018-09-08T06:10:37.994Z,100330.41
2018-09-08T06:16:10.895Z,100328.67
2018-09-08T06:18:40.248Z,100331.20
2018-09-08T06:21:09.609Z,100324.77
2018-09-08T06:23:40.748Z,100327.62
2018-09-08T06:26:12.292Z,100330.59
2018-09-08T06:28:42.693Z,100332.41
2018-09-08T06:31:13.174Z,100337.77
2018-09-08T06:33:43.495Z,100327.52
2018-09-08T06:36:13.739Z,100326.16
2018-09-08T06:38:44.898Z,100328.08
2018-09-08T06:41:16.006Z,100329.22
2018-09-08T06:43:48.108Z,100331.25
2018-09-08T06:46:19.560Z,100333.43
2018-09-08T06:48:50.702Z,100334.91
2018-09-08T06:51:22.634Z,100330.77
2018-09-08T06:53:55.087Z,100334.10
2018-09-08T06:56:26.191Z,100330.61
2018-09-08T06:58:57.288Z,100336.11
2018-09-08T07:01:28.609Z,100335.64
2018-09-08T07:04:00.656Z,100321.03
2018-09-08T07:06:38.146Z,100336.43
2018-09-08T07:09:10.656Z,100333.62
2018-09-08T07:11:41.864Z,100343.44
2018-09-08T07:14:13.082Z,100353.33
2018-09-08T07:16:44.249Z,100330.42
2018-09-08T07:19:15.415Z,100315.84
2018-09-08T07:21:47.512Z,100347.56
2018-09-08T07:24:18.602Z,100344.31
2018-09-08T07:26:49.780Z,100357.65
2018-09-08T07:29:21.007Z,100363.64
2018-09-08T07:31:52.947Z,100360.95
2018-09-08T07:34:24.052Z,100368.88
2018-09-08T07:36:55.321Z,100367.16
2018-09-08T07:39:29.036Z,100369.98
2018-09-08T07:42:00.215Z,100361.55
2018-09-08T07:44:31.964Z,100371.70
2018-09-08T07:47:04.611Z,100376.47
2018-09-08T07:49:36.113Z,100372.16
2018-09-08T07:52:07.303Z,100370.33
2018-09-08T07:54:38.389Z,100368.50
2018-09-08T07:57:12.055Z,100368.90
2018-09-08T07:59:43.371Z,100368.80
2018-09-08T08:02:15.547Z,100368.33
2018-09-08T08:04:46.673Z,100364.75
2018-09-08T08:07:17.848Z,100365.93
2018-09-08T08:09:50.116Z,100344.65
2018-09-08T08:12:23.211Z,100354.44
2018-09-08T08:14:54.549Z,100348.19
2018-09-08T08:17:25.669Z,100347.85
2018-09-08T08:19:58.411Z,100351.78
2018-09-08T08:22:29.561Z,100358.64
2018-09-08T08:25:00.671Z,100352.81
2018-09-08T08:27:31.801Z,100354.80
2018-09-08T08:30:03.240Z,100347.73
2018-09-08T08:32:35.015Z,100362.28
2018-09-08T08:35:06.239Z,100362.58
2018-09-08T08:37:37.338Z,100360.73
2018-09-08T08:40:08.484Z,100359.88
2018-09-08T08:42:39.603Z,100354.77
2018-09-08T08:45:12.570Z,100357.45
2018-09-08T08:47:43.691Z,100350.44
2018-09-08T08:50:25.816Z,100354.38
2018-09-08T08:55:11.344Z,100356.65
2018-09-08T08:57:42.692Z,100349.38
2018-09-08T09:00:16.095Z,100277.69
2018-09-08T09:02:47.855Z,100363.95
2018-09-08T09:05:20.696Z,100356.51
2018-09-08T09:07:53.725Z,100352.01
2018-09-08T09:10:26.798Z,100328.82
2018-09-08T09:12:59.708Z,100360.67
2018-09-08T09:15:31.425Z,100353.68
2018-09-08T09:18:02.442Z,100352.58
2018-09-08T09:22:48.585Z,100338.25
2018-09-08T09:25:19.054Z,100282.20
2018-09-08T09:27:51.247Z,100343.52
2018-09-08T09:30:26.193Z,100245.80
2018-09-08T09:32:57.352Z,100259.31
2018-09-08T09:35:29.246Z,100283.16
2018-09-08T09:38:00.381Z,100339.76
2018-09-08T09:40:31.470Z,100350.34
2018-09-08T09:43:02.644Z,100351.78
2018-09-08T09:45:33.788Z,100344.80
2018-09-08T09:48:04.972Z,100331.91
2018-09-08T09:50:36.092Z,100335.20
2018-09-08T09:53:07.291Z,100341.36
2018-09-08T09:55:38.403Z,100332.64
2018-09-08T09:58:10.119Z,100331.91
2018-09-08T10:00:46.374Z,100334.41
2018-09-08T10:03:19.491Z,100332.15
2018-09-08T10:05:50.612Z,100334.16
2018-09-08T10:08:21.754Z,100345.67
2018-09-08T10:10:53.628Z,100346.44
2018-09-08T10:13:24.756Z,100338.81
2018-09-08T10:15:56.819Z,100343.89
2018-09-08T10:18:29.281Z,100347.94
2018-09-08T10:21:00.463Z,100342.07
2018-09-08T10:23:32.283Z,100344.31
2018-09-08T10:26:03.605Z,100332.29
2018-09-08T10:28:34.792Z,100327.88
2018-09-08T10:31:07.503Z,100324.92
2018-09-08T10:33:39.894Z,100325.31
2018-09-08T10:36:11.309Z,100327.02
2018-09-08T10:38:42.473Z,100325.17
2018-09-08T10:41:13.671Z,100323.95
2018-09-08T10:43:44.924Z,100322.19
2018-09-08T10:46:21.234Z,100314.85
2018-09-08T10:48:52.372Z,100317.77
2018-09-08T10:52:05.193Z,100316.14
2018-09-08T10:54:36.967Z,100318.68
2018-09-08T10:57:08.453Z,100322.88
2018-09-08T10:59:41.036Z,100306.33
2018-09-08T11:02:12.391Z,100309.50
2018-09-08T11:04:43.568Z,100302.36
2018-09-08T11:07:14.783Z,100282.45
2018-09-08T11:09:46.593Z,100290.71
2018-09-08T11:12:17.719Z,100300.33
2018-09-08T11:14:49.858Z,100303.57
2018-09-08T11:17:21.521Z,100303.58
2018-09-08T11:19:54.899Z,100301.41
2018-09-08T11:22:26.046Z,100306.91
2018-09-08T11:24:57.234Z,100303.58
2018-09-08T11:27:28.441Z,100293.18
2018-09-08T11:29:59.639Z,100299.98
2018-09-08T11:32:30.775Z,100297.80
2018-09-08T11:35:02.983Z,100297.02
2018-09-08T11:37:34.176Z,100302.19
2018-09-08T11:40:05.350Z,100307.41
2018-09-08T11:42:36.551Z,100303.80
2018-09-08T11:45:08.311Z,100306.83
2018-09-08T11:47:39.427Z,100300.83
2018-09-08T11:50:12.111Z,100295.59
2018-09-08T11:52:45.219Z,100301.14
2018-09-08T11:55:16.607Z,100297.00
2018-09-08T11:57:48.345Z,100292.84
2018-09-08T12:00:21.330Z,100287.39
2018-09-08T12:02:52.529Z,100291.23
2018-09-08T12:05:24.842Z,100303.59
2018-09-08T12:07:56.221Z,100295.08
2018-09-08T12:10:30.446Z,100290.95
2018-09-08T12:13:04.711Z,100288.48
2018-09-08T12:15:38.302Z,100287.69
2018-09-08T12:18:10.165Z,100276.94
2018-09-08T12:20:41.665Z,100277.54
2018-09-08T12:23:14.157Z,100272.57
2018-09-08T12:25:45.453Z,100267.39
2018-09-08T12:28:16.652Z,100266.28
2018-09-08T12:30:48.854Z,100264.89
2018-09-08T12:33:20.104Z,100267.91
2018-09-08T12:35:53.857Z,100262.92
2018-09-08T12:38:27.102Z,100270.34
2018-09-08T12:40:58.339Z,100255.23
2018-09-08T12:43:32.081Z,100262.84
2018-09-08T12:46:04.395Z,100256.52
2018-09-08T12:48:36.328Z,100251.81
2018-09-08T12:51:09.476Z,100254.70
2018-09-08T12:53:41.481Z,100268.78
2018-09-08T12:56:12.797Z,100218.69
2018-09-08T12:58:44.158Z,100254.05
2018-09-08T13:01:15.880Z,100250.92
2018-09-08T13:03:48.427Z,100243.69
2018-09-08T13:06:19.608Z,100252.69
2018-09-08T13:08:50.783Z,100248.85
2018-09-08T13:11:21.947Z,100256.70
2018-09-08T13:13:54.511Z,100256.28
2018-09-08T13:16:25.615Z,100254.56
2018-09-08T13:18:56.759Z,100244.63
2018-09-08T13:21:30.330Z,100234.75
2018-09-08T13:24:01.486Z,100239.11
2018-09-08T13:26:33.621Z,100233.59
2018-09-08T13:29:05.788Z,100232.48
2018-09-08T13:31:37.613Z,100230.97
2018-09-08T13:34:08.803Z,100230.66
2018-09-08T13:36:43.560Z,100220.06
2018-09-08T13:39:15.600Z,100214.02
2018-09-08T13:41:48.242Z,100228.97
2018-09-08T13:44:19.381Z,100219.77
2018-09-08T13:46:50.578Z,100218.34
2018-09-08T13:49:24.679Z,100209.97
2018-09-08T13:51:58.828Z,100209.44
2018-09-08T13:54:29.929Z,100206.72
2018-09-08T13:57:01.439Z,100215.80
2018-09-08T13:59:32.650Z,100219.65
2018-09-08T14:02:03.832Z,100220.23
2018-09-08T14:04:35.061Z,100214.39
2018-09-08T14:07:08.590Z,100220.41
2018-09-08T14:09:39.800Z,100217.25
2018-09-08T14:12:11.205Z,100212.39
2018-09-08T14:14:42.550Z,100208.53
2018-09-08T14:17:13.709Z,100207.78
2018-09-08T14:19:44.837Z,100206.89
2018-09-08T14:22:16.917Z,100207.16
2018-09-08T14:24:50.573Z,100203.29
2018-09-08T14:27:23.009Z,100206.59
2018-09-08T14:29:54.673Z,100209.59
2018-09-08T14:32:25.794Z,100202.03
2018-09-08T14:34:58.103Z,100197.86
2018-09-08T14:37:29.213Z,100194.94
2018-09-08T14:40:00.410Z,100163.27
2018-09-08T14:42:31.528Z,100200.38
2018-09-08T14:45:03.881Z,100185.13
2018-09-08T14:47:34.995Z,100195.63
2018-09-08T14:50:06.457Z,100188.08
2018-09-08T14:52:37.647Z,100194.03
2018-09-08T14:55:08.776Z,100203.47
2018-09-08T14:57:41.265Z,100194.48
2018-09-08T15:00:14.132Z,100179.45
2018-09-08T15:02:46.296Z,100181.91
2018-09-08T15:05:17.434Z,100190.39
2018-09-08T15:07:48.735Z,100197.30
2018-09-08T15:10:19.160Z,100186.97
2018-09-08T15:12:50.264Z,100171.88
2018-09-08T15:15:24.307Z,100190.21
2018-09-08T15:17:55.458Z,100188.08
2018-09-08T15:20:27.276Z,100192.44
2018-09-08T15:22:58.505Z,100193.20
2018-09-08T15:25:29.663Z,100194.02
2018-09-08T15:28:01.466Z,100191.91
2018-09-08T15:30:33.382Z,100194.06
2018-09-08T15:33:08.210Z,100190.77
2018-09-08T15:35:39.359Z,100190.73
2018-09-08T15:38:10.435Z,100186.86
2018-09-08T15:40:41.568Z,100189.86
2018-09-08T15:43:12.719Z,100193.73
2018-09-08T15:45:43.964Z,100190.72
2018-09-08T15:48:15.250Z,100184.70
2018-09-08T15:50:47.239Z,100184.98
2018-09-08T15:53:18.417Z,100186.59
2018-09-08T15:55:50.876Z,100170.12
2018-09-08T15:58:22.932Z,100177.03
2018-09-08T16:00:54.239Z,100169.61
2018-09-08T16:03:25.512Z,100162.70
2018-09-08T16:05:57.372Z,100172.67
2018-09-08T16:08:28.501Z,100176.24
2018-09-08T16:10:59.833Z,100143.11
2018-09-08T16:13:31.207Z,100181.16
2018-09-08T16:16:02.606Z,100178.02
2018-09-08T16:18:34.579Z,100151.72
2018-09-08T16:21:05.845Z,100178.33
2018-09-08T16:23:36.956Z,100180.36
2018-09-08T16:26:09.427Z,100181.98
2018-09-08T16:28:40.630Z,100185.58
2018-09-08T16:31:12.762Z,100178.23
2018-09-08T16:33:43.913Z,100178.17
2018-09-08T16:36:18.778Z,100171.62
2018-09-08T16:38:50.073Z,100172.96
2018-09-08T16:41:21.358Z,100173.80
2018-09-08T16:43:53.971Z,100167.99
2018-09-08T16:46:25.164Z,100174.02
2018-09-08T16:48:56.328Z,100175.09
2018-09-08T16:51:29.384Z,100174.55
2018-09-08T16:54:00.536Z,100172.68
2018-09-08T16:56:31.741Z,100168.53
2018-09-08T16:59:02.888Z,100165.54
2018-09-08T17:01:35.677Z,100135.05
2018-09-08T17:04:06.853Z,100163.38
2018-09-08T17:06:40.274Z,100170.48
2018-09-08T17:09:11.828Z,100167.48
2018-09-08T17:11:43.000Z,100161.40
2018-09-08T17:14:14.942Z,100159.41
2018-09-08T17:16:46.052Z,100155.28
2018-09-08T17:19:18.408Z,100166.55
2018-09-08T17:21:50.573Z,100166.49
2018-09-08T17:24:23.049Z,100170.30
2018-09-08T17:26:55.632Z,100167.32
2018-09-08T17:29:27.484Z,100172.79
2018-09-08T17:31:59.612Z,100170.53
2018-09-08T17:34:31.912Z,100167.47
2018-09-08T17:37:04.050Z,100174.91
2018-09-08T17:39:35.167Z,100181.47
2018-09-08T17:42:06.382Z,100184.80
2018-09-08T17:44:37.536Z,100183.43
2018-09-08T17:47:08.872Z,100186.63
2018-09-08T17:49:44.464Z,100179.27
2018-09-08T17:52:16.431Z,100167.94
2018-09-08T17:54:49.724Z,100169.58
2018-09-08T17:57:22.501Z,100167.66
2018-09-08T17:59:54.389Z,100153.10
2018-09-08T18:02:25.583Z,100168.78
2018-09-08T18:04:57.600Z,100161.63
2018-09-08T18:07:29.795Z,100166.94
2018-09-08T18:10:03.221Z,100168.67
2018-09-08T18:12:34.454Z,100169.55
2018-09-08T18:15:06.394Z,100168.33
2018-09-08T18:17:38.128Z,100182.18
2018-09-08T18:20:10.500Z,100179.56
2018-09-08T18:22:41.651Z,100189.61
2018-09-08T18:25:13.658Z,100189.08
2018-09-08T18:27:44.836Z,100185.44
2018-09-08T18:30:18.478Z,100183.16
2018-09-08T18:32:50.417Z,100200.00
2018-09-08T18:35:22.525Z,100132.00
2018-09-08T18:37:55.428Z,100185.77
2018-09-08T18:40:27.382Z,100188.00
2018-09-08T18:43:03.399Z,100192.94
2018-09-08T18:45:34.740Z,100190.90
2018-09-08T18:48:05.925Z,100196.55
2018-09-08T18:50:37.238Z,100195.63
2018-09-08T18:53:09.605Z,100190.86
2018-09-08T18:55:41.381Z,100197.11
2018-09-08T18:58:13.325Z,100196.43
2018-09-08T19:00:45.008Z,100197.92
2018-09-08T19:03:17.101Z,100196.00
2018-09-08T19:05:50.492Z,100199.80
2018-09-08T19:08:21.677Z,100202.61
2018-09-08T19:10:52.503Z,100204.70
2018-09-08T19:13:24.589Z,100200.32
2018-09-08T19:15:56.860Z,100205.52
2018-09-08T19:18:27.134Z,100194.55
2018-09-08T19:20:59.380Z,100203.59
2018-09-08T19:23:30.449Z,100203.15
2018-09-08T19:26:02.322Z,100197.84
2018-09-08T19:28:33.411Z,100197.33
2018-09-08T19:31:06.535Z,100190.31
2018-09-08T19:33:36.777Z,100195.39
2018-09-08T19:36:09.700Z,100187.22
2018-09-08T19:38:42.123Z,100193.00
2018-09-08T19:41:16.943Z,100197.39
2018-09-08T19:43:48.225Z,100193.05
2018-09-08T19:46:25.363Z,100184.77
2018-09-08T19:48:57.261Z,100191.91
2018-09-08T19:51:30.898Z,100181.30
2018-09-08T19:54:02.919Z,100188.22
2018-09-08T19:56:39.840Z,100187.84
2018-09-08T19:59:13.478Z,100190.70
2018-09-08T20:01:45.373Z,100201.52
2018-09-08T20:04:17.288Z,100195.88
2018-09-08T20:06:48.353Z,100195.52
2018-09-08T20:09:22.785Z,100196.59
2018-09-08T20:11:54.591Z,100203.79
2018-09-08T20:14:25.780Z,100198.95
2018-09-08T20:16:59.397Z,100199.62
2018-09-08T20:19:32.556Z,100203.00
2018-09-08T20:22:06.204Z,100199.37
2018-09-08T20:24:39.220Z,100206.33
2018-09-08T20:27:11.300Z,100193.69
2018-09-08T20:29:43.588Z,100196.56
2018-09-08T20:32:15.512Z,100204.55
2018-09-08T20:35:08.287Z,100199.74
2018-09-08T20:37:55.902Z,100199.37
2018-09-08T20:40:28.250Z,100196.41
2018-09-08T20:43:00.274Z,100196.48
2018-09-08T20:45:46.594Z,100190.94
2018-09-08T20:48:19.421Z,100188.47
2018-09-08T20:50:57.322Z,100188.84
2018-09-08T20:53:27.697Z,100198.72
2018-09-08T20:55:58.773Z,100192.22
2018-09-08T20:58:30.807Z,100191.61
2018-09-08T21:01:03.536Z,100195.70
2018-09-08T21:03:35.104Z,100188.17
2018-09-08T21:06:07.258Z,100188.35
2018-09-08T21:08:38.935Z,100189.08
2018-09-08T21:11:11.449Z,100188.63
2018-09-08T21:13:42.574Z,100184.16
2018-09-08T21:16:14.704Z,100196.89
2018-09-08T21:18:44.989Z,100203.57
2018-09-08T21:21:17.037Z,100185.02
2018-09-08T21:23:49.205Z,100194.28
2018-09-08T21:26:20.224Z,100199.42
2018-09-08T21:28:52.480Z,100196.50
2018-09-08T21:31:22.697Z,100206.34
2018-09-08T21:33:52.990Z,100200.20
2018-09-08T21:36:24.566Z,100199.50
2018-09-08T21:38:55.888Z,100201.96
2018-09-08T21:41:27.654Z,100207.79
2018-09-08T21:43:57.639Z,100103.86
2018-09-08T21:46:29.056Z,100208.17
2018-09-08T21:48:59.266Z,100215.34
2018-09-08T21:51:31.992Z,100218.89
2018-09-08T21:54:06.388Z,100214.35
2018-09-08T21:56:35.717Z,100209.23
2018-09-08T21:59:06.585Z,100213.84
2018-09-08T22:01:38.452Z,100219.55
2018-09-08T22:04:09.467Z,100219.38
2018-09-08T22:06:40.812Z,100221.93
2018-09-08T22:09:11.311Z,100230.09
2018-09-08T22:11:45.314Z,100232.25
2018-09-08T22:14:16.556Z,100231.02
2018-09-08T22:16:48.751Z,100234.10
2018-09-08T22:19:19.820Z,100238.80
2018-09-08T22:21:51.918Z,100237.30
2018-09-08T22:24:22.361Z,100231.14
2018-09-08T22:26:55.090Z,100136.22
2018-09-08T22:29:29.121Z,100228.27
2018-09-08T22:32:00.369Z,100125.83
2018-09-08T22:34:30.706Z,100230.16
2018-09-08T22:37:02.515Z,100220.92
2018-09-08T22:39:38.584Z,100225.52
2018-09-08T22:42:09.000Z,100217.16
2018-09-08T22:44:40.813Z,100226.19
2018-09-08T22:47:12.791Z,100229.25
2018-09-08T22:49:45.010Z,100227.56
2018-09-08T22:52:16.237Z,100232.02
2018-09-08T22:54:47.592Z,100231.30
2018-09-08T22:57:17.907Z,100236.67
2018-09-08T22:59:50.417Z,100230.13
2018-09-08T23:02:24.147Z,100228.05
2018-09-08T23:04:55.813Z,100233.85
2018-09-08T23:07:26.948Z,100234.91
2018-09-08T23:10:00.244Z,100238.48
2018-09-08T23:12:34.077Z,100244.23
2018-09-08T23:15:08.102Z,100240.03
2018-09-08T23:17:39.287Z,100238.47
2018-09-08T23:20:09.648Z,100239.61
2018-09-08T23:22:41.021Z,100247.45
2018-09-08T23:25:11.521Z,100248.55
2018-09-08T23:27:42.549Z,100249.53
2018-09-08T23:30:14.308Z,100253.30
2018-09-08T23:32:45.430Z,100258.60
2018-09-08T23:35:16.547Z,100252.57
2018-09-08T23:37:48.575Z,100251.03
2018-09-08T23:40:19.620Z,100249.06
2018-09-08T23:42:50.480Z,100247.88
2018-09-08T23:45:24.356Z,100250.45
2018-09-08T23:47:54.560Z,100243.77
2018-09-08T23:50:25.013Z,100240.84
2018-09-08T23:52:56.393Z,100232.80
2018-09-08T23:55:26.635Z,100221.50
2018-09-08T23:57:57.051Z,100237.53
